»·PEaware :: N5148V KLGB-KMYF

N5148V :: KLGB-KMYF

FLIGHT INFORMATION

Flight Status: Arrived
Operator: Privately registered:
United States
More flights under this callsign
Pilot: Chris P. (25553)
Aircraft: CESSNA 172 SKYHAWK
(C172)
More flights by this aircraft type
Origin: KLGB Long Beach
United States
Destination: KMYF Montgomery
United States
More flights between these airports :: More routes between these airports
Route: SLI V64 V363 DANAH V23 MZB
File this flight plan on PilotEdge
Remarks:
Altitude:
(Current/Filed)
7,000ft
Speed:
(Current/Filed)
110kts
Departed: 12-Sep-20 08:47 PM
Arrived: 12-Sep-20 09:59 PM
Distance/Time
Traveled:
79nm/1:12
Distance/Time
To Go:
Arrived

Flight Plot

Page will automatically refresh every two minutes.


Map Options




Map Legend


Flown Route
Filed Route
Departure Airport
Arrival Airport
Navaid (VOR, NDB)
Fix

Horizontal Profiles

Position Reports

Time Latitude Longitude Heading Altitude Ground
Speed
12-Sep-20 20:20 33.812682 -118.154096 89 47ft 0kts
12-Sep-20 20:21 33.812682 -118.154096 89 47ft 0kts
12-Sep-20 20:22 33.812682 -118.154096 89 47ft 0kts
12-Sep-20 20:23 33.812682 -118.154096 89 47ft 0kts
12-Sep-20 20:24 33.812682 -118.154096 89 47ft 0kts
12-Sep-20 20:25 33.812682 -118.154096 89 47ft 0kts
12-Sep-20 20:26 33.812682 -118.154096 89 47ft 0kts
12-Sep-20 20:27 33.812682 -118.154096 89 47ft 0kts
12-Sep-20 20:28 33.812682 -118.154096 89 47ft 0kts
12-Sep-20 20:29 33.812682 -118.154096 89 47ft 0kts
12-Sep-20 20:30 33.812682 -118.154096 89 47ft 0kts
12-Sep-20 20:31 33.812682 -118.154096 89 47ft 0kts
12-Sep-20 20:32 33.812682 -118.154096 89 47ft 0kts
12-Sep-20 20:33 33.812682 -118.154096 89 47ft 0kts
12-Sep-20 20:34 33.812682 -118.154096 89 47ft 0kts
12-Sep-20 20:35 33.812682 -118.154096 89 47ft 0kts
12-Sep-20 20:36 33.812682 -118.154096 89 47ft 0kts
12-Sep-20 20:37 33.812682 -118.154096 89 47ft 0kts
12-Sep-20 20:38 33.813001 -118.153511 60 47ft 5kts
12-Sep-20 20:39 33.813183 -118.150138 86 47ft 14kts
12-Sep-20 20:40 33.813343 -118.148506 355 47ft 0kts
12-Sep-20 20:41 33.813343 -118.148506 355 47ft 0kts
12-Sep-20 20:42 33.813343 -118.148506 355 47ft 0kts
12-Sep-20 20:43 33.813343 -118.148506 355 47ft 0kts
12-Sep-20 20:44 33.813343 -118.148506 355 47ft 0kts
12-Sep-20 20:45 33.813551 -118.148545 346 47ft 6kts
12-Sep-20 20:46 33.814094 -118.162977 272 494ft 69kts
12-Sep-20 20:47 33.805783 -118.183103 209 1353ft 91kts
12-Sep-20 20:48 33.783020 -118.194786 206 2116ft 90kts
12-Sep-20 20:49 33.758725 -118.204667 208 2757ft 95kts
12-Sep-20 20:50 33.739378 -118.194358 111 3333ft 99kts
12-Sep-20 20:51 33.729281 -118.163686 111 3987ft 100kts
12-Sep-20 20:52 33.722441 -118.130503 92 4591ft 105kts
12-Sep-20 20:53 33.717331 -118.094826 99 4890ft 111kts
12-Sep-20 20:54 33.708262 -118.059103 106 5054ft 112kts
12-Sep-20 20:55 33.695920 -118.023956 112 5114ft 114kts
12-Sep-20 20:56 33.685080 -117.987744 107 5047ft 117kts
12-Sep-20 20:57 33.675438 -117.950430 97 4975ft 116kts
12-Sep-20 20:58 33.659388 -117.919631 135 4989ft 107kts
12-Sep-20 20:59 33.638927 -117.893547 134 4942ft 107kts
12-Sep-20 21:00 33.617204 -117.869413 135 4919ft 106kts
12-Sep-20 21:01 33.596842 -117.843635 142 4892ft 106kts
12-Sep-20 21:02 33.576646 -117.818244 136 4918ft 105kts
12-Sep-20 21:03 33.553962 -117.796938 134 4927ft 103kts
12-Sep-20 21:04 33.532685 -117.773505 141 4960ft 104kts
12-Sep-20 21:05 33.510885 -117.750734 142 4997ft 104kts
12-Sep-20 21:06 33.488575 -117.728984 127 5029ft 104kts
12-Sep-20 21:07 33.472586 -117.699939 126 5062ft 104kts
12-Sep-20 21:08 33.455846 -117.671658 127 5056ft 103kts
12-Sep-20 21:09 33.438294 -117.644131 129 5023ft 103kts
12-Sep-20 21:10 33.420077 -117.617563 133 4993ft 103kts
12-Sep-20 21:11 33.399925 -117.593307 136 4966ft 102kts
12-Sep-20 21:12 33.378815 -117.570200 138 4943ft 103kts
12-Sep-20 21:13 33.357559 -117.547546 138 4971ft 102kts
12-Sep-20 21:14 33.336687 -117.524679 136 4987ft 101kts
12-Sep-20 21:15 33.315918 -117.501551 136 5003ft 102kts
12-Sep-20 21:16 33.295080 -117.478390 136 5008ft 104kts
12-Sep-20 21:17 33.272934 -117.454324 137 5006ft 109kts
12-Sep-20 21:18 33.250263 -117.429818 137 5006ft 109kts
12-Sep-20 21:19 33.224377 -117.410869 153 5008ft 109kts
12-Sep-20 21:20 33.196685 -117.395846 154 5009ft 109kts
12-Sep-20 21:21 33.169033 -117.380742 154 5011ft 109kts
12-Sep-20 21:22 33.143652 -117.362288 121 5013ft 110kts
12-Sep-20 21:23 33.130256 -117.329007 117 5015ft 111kts
12-Sep-20 21:24 33.117193 -117.295542 117 5015ft 111kts
12-Sep-20 21:25 33.104180 -117.262216 117 5016ft 110kts
12-Sep-20 21:26 33.091176 -117.228972 117 5017ft 110kts
12-Sep-20 21:27 33.078124 -117.195554 117 5018ft 111kts
12-Sep-20 21:28 33.062694 -117.160819 117 5022ft 122kts
12-Sep-20 21:29 33.046410 -117.125173 117 5024ft 122kts
12-Sep-20 21:30 33.029925 -117.089585 117 5029ft 121kts
12-Sep-20 21:31 33.013573 -117.054556 117 5034ft 120kts
12-Sep-20 21:32 32.997277 -117.019680 117 5039ft 120kts
12-Sep-20 21:33 32.981121 -116.984990 117 5043ft 119kts
12-Sep-20 21:34 32.957321 -116.958615 148 5046ft 120kts
12-Sep-20 21:35 32.928640 -116.938262 148 5048ft 120kts
12-Sep-20 21:36 32.900055 -116.917957 148 5050ft 120kts
12-Sep-20 21:37 32.871478 -116.897642 148 5050ft 119kts
12-Sep-20 21:38 32.842822 -116.877264 148 5052ft 119kts
12-Sep-20 21:39 32.812487 -116.862005 182 4908ft 122kts
12-Sep-20 21:40 32.780199 -116.865012 182 4480ft 114kts
12-Sep-20 21:41 32.748306 -116.865261 180 4203ft 115kts
12-Sep-20 21:42 32.740159 -116.892928 266 4210ft 107kts
12-Sep-20 21:43 32.738670 -116.928675 267 4150ft 108kts
12-Sep-20 21:44 32.745153 -116.963109 290 3876ft 107kts
12-Sep-20 21:45 32.758584 -116.994780 300 3282ft 108kts
12-Sep-20 21:46 32.772105 -117.025846 297 2542ft 103kts
12-Sep-20 21:47 32.784563 -117.056740 294 1813ft 104kts
12-Sep-20 21:48 32.795217 -117.086632 297 1368ft 85kts
12-Sep-20 21:49 32.803770 -117.107795 294 874ft 61kts
12-Sep-20 21:50 32.811667 -117.128222 295 605ft 68kts
12-Sep-20 21:59 32.814885 -117.137753 244 416ft 0kts

Navigation Log

Ident Type
Flight plan parsing failed, navigation log unavailable